Time;durP1;ratioP1;P1;durP2;ratioP2;P2;SDS_P1;SDS_P2;PMS_P1;PMS_P2;Temp;Humidity;BMP_temperature;BMP_pressure;BME280_temperature;BME280_humidity;BME280_pressure;Samples;Min_cycle;Max_cycle;Signal;HPM_P1;HPM_P2
2022/04/28 00:01:52;;;;;;;12.40;5.10;;;;;;;8.83;57.14;99856.74;109430;1277;22963;-88
2022/04/28 00:04:22;;;;;;;11.90;5.20;;;;;;;8.75;57.09;99860.04;109583;1277;22403;-87
2022/04/28 00:07:09;;;;;;;11.30;5.10;;;;;;;8.60;57.12;99854.75;109421;1277;22402;-88
2022/04/28 00:09:39;;;;;;;11.60;5.30;;;;;;;8.51;57.21;99852.91;109493;1277;22323;-89
2022/04/28 00:12:12;;;;;;;12.20;4.80;;;;;;;8.54;57.15;99854.03;109257;1277;22360;-88
2022/04/28 00:14:46;;;;;;;11.50;5.30;;;;;;;8.54;57.28;99851.89;109407;1277;22454;-88
2022/04/28 00:17:13;;;;;;;11.80;5.20;;;;;;;8.51;57.28;99855.77;109594;1277;23109;-88
2022/04/28 00:19:40;;;;;;;11.60;4.90;;;;;;;8.53;57.25;99861.48;109404;1277;22407;-89
2022/04/28 00:22:21;;;;;;;10.90;5.00;;;;;;;8.52;57.26;99859.77;109439;1277;22213;-89
2022/04/28 00:25:08;;;;;;;10.70;5.10;;;;;;;8.54;57.32;99856.29;109455;1277;22414;-88
2022/04/28 00:27:35;;;;;;;9.50;4.30;;;;;;;8.55;57.27;99867.09;109563;1277;22478;-90
2022/04/28 00:30:09;;;;;;;10.70;4.80;;;;;;;8.50;57.24;99865.01;109302;1280;22622;-89
2022/04/28 00:32:45;;;;;;;10.30;4.40;;;;;;;8.47;57.16;99860.56;109628;1277;22182;-89
2022/04/28 00:35:14;;;;;;;10.50;4.50;;;;;;;8.36;57.17;99869.63;109311;1277;22463;-89
2022/04/28 00:37:42;;;;;;;10.20;4.60;;;;;;;8.27;57.15;99870.96;109517;1277;22325;-89
2022/04/28 00:40:09;;;;;;;9.60;4.40;;;;;;;8.20;57.27;99876.07;109633;1277;23544;-90
2022/04/28 00:42:47;;;;;;;;;;;;;;;;;;;;;
2022/04/28 00:45:20;;;;;;;10.60;4.40;;;;;;;8.24;57.36;99873.95;109425;1277;22355;-90
2022/04/28 00:50:39;;;;;;;10.60;4.60;;;;;;;8.22;57.17;99879.90;109459;1277;22481;-89
2022/04/28 00:53:12;;;;;;;9.70;4.50;;;;;;;8.18;57.22;99875.99;109480;1277;23141;-90
2022/04/28 00:55:41;;;;;;;9.00;4.20;;;;;;;8.20;57.31;99872.70;109386;1279;23046;-90
2022/04/28 00:58:10;;;;;;;13.00;4.40;;;;;;;8.29;57.20;99878.66;109325;1277;22497;-87
2022/04/28 01:01:00;;;;;;;10.90;3.60;;;;;;;8.37;57.17;99884.50;109432;1277;22372;-88
2022/04/28 01:03:30;;;;;;;10.30;4.20;;;;;;;8.39;57.11;99875.69;109411;1277;22343;-90
2022/04/28 01:05:58;;;;;;;10.10;3.90;;;;;;;8.44;56.88;99879.54;109430;1277;22422;-89
2022/04/28 01:08:31;;;;;;;9.50;4.40;;;;;;;8.37;56.91;99879.15;109336;1277;22447;-90
2022/04/28 01:11:19;;;;;;;11.70;4.40;;;;;;;8.30;56.99;99878.23;109361;1277;22465;-89
2022/04/28 01:13:58;;;;;;;12.60;4.10;;;;;;;8.26;57.04;99877.76;109370;1277;22455;-89
2022/04/28 01:16:49;;;;;;;10.90;4.20;;;;;;;8.18;57.04;99880.41;109514;1277;23007;-89
2022/04/28 01:19:18;;;;;;;12.10;4.20;;;;;;;8.10;56.88;99876.36;109183;1277;23136;-89
2022/04/28 01:21:55;;;;;;;11.00;3.70;;;;;;;8.08;56.94;99879.50;109441;1277;22471;-89
2022/04/28 01:24:31;;;;;;;9.10;3.90;;;;;;;8.03;57.06;99876.20;109455;1277;22416;-90
2022/04/28 01:27:20;;;;;;;9.90;4.20;;;;;;;8.00;57.07;99876.34;109349;1277;22241;-86
2022/04/28 01:29:47;;;;;;;8.00;3.40;;;;;;;8.02;57.02;99875.70;109201;1277;22787;-90
2022/04/28 01:32:25;;;;;;;10.20;3.60;;;;;;;7.95;56.98;99875.36;109531;1277;22611;-90
2022/04/28 01:34:54;;;;;;;8.80;3.70;;;;;;;8.00;57.11;99873.34;109215;1277;22320;-89
2022/04/28 01:37:42;;;;;;;8.40;3.50;;;;;;;8.08;56.96;99873.11;109263;1277;22187;-88
2022/04/28 01:40:17;;;;;;;8.30;3.70;;;;;;;8.13;56.97;99873.78;109430;1277;22458;-88
2022/04/28 01:42:57;;;;;;;8.00;3.60;;;;;;;8.14;57.02;99873.36;109389;1277;23015;-89
2022/04/28 01:45:24;;;;;;;10.90;3.90;;;;;;;8.14;56.89;99883.30;109444;1277;22244;-89
2022/04/28 01:48:15;;;;;;;8.90;3.40;;;;;;;8.08;56.97;99881.45;109339;1277;23105;-89
2022/04/28 01:56:59;;;;;;;10.60;3.40;;;;;;;8.21;57.01;99886.66;109463;1277;22421;-89
2022/04/28 01:59:36;;;;;;;10.00;3.90;;;;;;;8.17;56.85;99872.31;109486;1277;22385;-90
2022/04/28 02:02:22;;;;;;;7.90;3.60;;;;;;;8.13;56.93;99878.55;109637;1277;22453;-89
2022/04/28 02:04:58;;;;;;;9.80;4.00;;;;;;;8.09;56.89;99880.00;109420;1277;22359;-89
2022/04/28 02:07:28;;;;;;;9.00;3.80;;;;;;;8.08;57.00;99879.89;109423;1277;22358;-89
2022/04/28 02:09:58;;;;;;;11.70;4.50;;;;;;;8.06;57.15;99877.11;109492;1277;22322;-88
2022/04/28 02:12:26;;;;;;;9.10;3.80;;;;;;;8.10;57.22;99873.39;109322;1277;22469;-89
2022/04/28 02:15:15;;;;;;;9.60;3.50;;;;;;;8.18;57.25;99873.34;109647;1277;22413;-89
2022/04/28 02:18:00;;;;;;;10.20;3.80;;;;;;;8.28;57.03;99870.21;109500;1277;23119;-89
2022/04/28 02:20:33;;;;;;;11.50;4.10;;;;;;;8.32;57.08;99867.88;109387;1277;22417;-89
2022/04/28 02:23:18;;;;;;;;;;;;;;;;;;;;;
2022/04/28 02:25:47;;;;;;;9.50;3.60;;;;;;;8.43;57.15;99870.17;109445;1277;22465;-90
2022/04/28 02:28:20;;;;;;;11.00;4.20;;;;;;;8.44;57.12;99868.89;109352;1277;22419;-90
2022/04/28 02:30:50;;;;;;;9.50;4.10;;;;;;;8.49;57.17;99870.42;109295;1277;22383;-89
2022/04/28 02:33:24;;;;;;;14.00;4.60;;;;;;;8.51;57.25;99871.73;109134;1277;22376;-90
2022/04/28 02:36:04;;;;;;;8.30;3.80;;;;;;;8.51;57.22;99872.27;109303;1277;22364;-89
2022/04/28 02:38:47;;;;;;;10.60;3.90;;;;;;;8.57;57.25;99878.88;109622;1277;22460;-89
2022/04/28 02:41:20;;;;;;;10.00;4.00;;;;;;;8.61;57.22;99874.21;109421;1277;22222;-89
2022/04/28 02:43:58;;;;;;;8.90;3.90;;;;;;;8.62;57.20;99872.04;109658;1277;23205;-89
2022/04/28 02:46:42;;;;;;;10.40;4.30;;;;;;;8.64;57.16;99870.88;109417;1277;22390;-90
2022/04/28 02:49:59;;;;;;;10.50;4.10;;;;;;;8.65;57.24;99869.20;109472;1277;22497;-88
2022/04/28 02:52:25;;;;;;;10.70;4.40;;;;;;;8.69;57.25;99873.27;109510;1277;22498;-89
2022/04/28 02:54:53;;;;;;;13.20;4.60;;;;;;;8.74;57.33;99876.58;109263;1279;23001;-89
2022/04/28 02:57:42;;;;;;;9.20;4.10;;;;;;;8.75;57.24;99872.24;109319;1279;22412;-90
2022/04/28 03:00:09;;;;;;;11.10;4.50;;;;;;;8.79;57.34;99873.85;109440;1277;22435;-89
2022/04/28 03:02:45;;;;;;;9.70;4.50;;;;;;;8.77;57.26;99880.50;109414;1277;23006;-89
2022/04/28 03:05:17;;;;;;;10.50;4.40;;;;;;;8.78;57.32;99877.80;109375;1277;22399;-88
2022/04/28 03:11:41;;;;;;;10.10;5.10;;;;;;;8.79;57.55;99887.49;109401;1278;22806;-89
2022/04/28 03:13:46;;;;;;;9.00;4.00;;;;;;;8.79;57.45;99891.06;109392;1277;22157;-89
2022/04/28 03:16:26;;;;;;;10.80;4.60;;;;;;;8.80;57.42;99893.11;109630;1277;22430;-92
2022/04/28 03:19:06;;;;;;;10.20;4.40;;;;;;;8.83;57.39;99889.59;109423;1277;22554;-89
2022/04/28 03:21:40;;;;;;;15.50;5.10;;;;;;;8.85;57.52;99889.15;109162;1277;23154;-89
2022/04/28 03:24:37;;;;;;;;;;;;;;;;;;;;;
2022/04/28 03:27:09;;;;;;;16.20;4.20;;;;;;;8.84;57.46;99890.98;109444;1277;22341;-89
2022/04/28 03:29:45;;;;;;;12.90;4.00;;;;;;;8.89;57.55;99885.92;109653;1277;22928;-88
2022/04/28 03:32:44;;;;;;;;;;;;;;;;;;;;;
2022/04/28 03:35:37;;;;;;;14.00;4.40;;;;;;;8.98;57.43;99892.42;109642;1277;23070;-89
2022/04/28 03:38:11;;;;;;;11.00;4.00;;;;;;;8.98;57.58;99890.45;109405;1277;22358;-84
2022/04/28 03:40:40;;;;;;;10.80;4.50;;;;;;;8.99;57.51;99895.02;109478;1277;22979;-89
2022/04/28 03:43:15;;;;;;;9.60;4.40;;;;;;;9.00;57.53;99893.70;109380;1277;22359;-87
2022/04/28 03:46:24;;;;;;;;;;;;;;;;;;;;;
2022/04/28 03:49:21;;;;;;;;;;;;;;;;;;;;;
2022/04/28 03:52:27;;;;;;;15.50;5.30;;;;;;;9.00;57.61;99897.45;109447;1279;22168;-89
2022/04/28 03:55:10;;;;;;;;;;;;;;;;;;;;;
2022/04/28 03:58:09;;;;;;;11.50;4.90;;;;;;;8.99;57.58;99897.64;109639;1277;22477;-87
2022/04/28 04:01:07;;;;;;;;;;;;;;;;;;;;;
2022/04/28 04:04:03;;;;;;;;;;;;;;;;;;;;;
2022/04/28 04:07:10;;;;;;;12.80;5.10;;;;;;;8.97;57.60;99910.70;109249;1277;23016;-90
2022/04/28 04:11:08;;;;;;;12.80;5.00;;;;;;;8.97;57.52;99912.15;109532;1277;23261;-91
2022/04/28 04:13:29;;;;;;;15.30;5.20;;;;;;;9.01;57.55;99918.88;109533;1277;22421;-90
2022/04/28 04:17:09;;;;;;;;;;;;;;;;;;;;;
2022/04/28 04:19:49;;;;;;;13.70;4.60;;;;;;;9.02;57.56;99925.02;107800;1292;22582;-89
2022/04/28 04:22:29;;;;;;;10.10;4.30;;;;;;;9.03;57.42;99927.65;107455;1293;22501;-88
2022/04/28 04:25:01;;;;;;;9.10;3.80;;;;;;;9.05;57.67;99924.35;107548;1292;22474;-89
2022/04/28 04:27:33;;;;;;;13.20;4.30;;;;;;;9.09;57.85;99931.06;107546;1294;22220;-90
2022/04/28 04:34:01;;;;;;;11.50;4.60;;;;;;;9.25;57.49;99935.75;107703;1292;22552;-88
2022/04/28 04:36:58;;;;;;;11.10;4.40;;;;;;;9.35;57.68;99935.73;107202;1299;22139;-90
2022/04/28 04:40:00;;;;;;;;;;;;;;;;;;;;;
2022/04/28 04:42:33;;;;;;;11.70;4.50;;;;;;;9.44;57.51;99945.59;107191;1299;23219;-90
2022/04/28 04:45:04;;;;;;;12.20;4.60;;;;;;;9.46;57.71;99950.40;107067;1299;23779;-90
2022/04/28 04:48:07;;;;;;;13.60;5.40;;;;;;;9.48;57.35;99949.79;107175;1299;22478;-89
2022/04/28 04:50:52;;;;;;;9.80;3.70;;;;;;;9.50;57.34;99951.81;107058;1300;22863;-91
2022/04/28 04:53:45;;;;;;;12.70;4.40;;;;;;;9.52;57.62;99953.46;107070;1300;23040;-90
2022/04/28 04:56:12;;;;;;;14.70;4.80;;;;;;;9.52;57.59;99954.21;107438;1289;22590;-90
2022/04/28 04:58:39;;;;;;;14.30;4.80;;;;;;;9.54;57.64;99957.30;108218;1289;22583;-91
2022/04/28 05:01:06;;;;;;;12.00;5.00;;;;;;;9.56;57.80;99956.67;108087;1289;22584;-89
2022/04/28 05:03:59;;;;;;;12.60;5.10;;;;;;;9.58;57.87;99959.22;108099;1290;22363;-90
2022/04/28 05:06:34;;;;;;;11.70;5.10;;;;;;;9.61;57.48;99968.83;108248;1287;23303;-89
2022/04/28 05:09:13;;;;;;;14.50;5.10;;;;;;;9.64;57.58;99966.86;108247;1287;22494;-90
2022/04/28 05:11:53;;;;;;;12.20;4.40;;;;;;;9.67;57.66;99969.20;108245;1287;22647;-91
2022/04/28 05:14:47;;;;;;;;;;;;;;;;;;;;;
2022/04/28 05:17:34;;;;;;;12.50;5.20;;;;;;;9.74;57.75;99971.88;109083;1277;22460;-91
2022/04/28 05:20:17;;;;;;;14.00;4.80;;;;;;;9.82;57.71;99972.48;109386;1277;22490;-89
2022/04/28 05:23:03;;;;;;;8.50;3.70;;;;;;;9.91;57.52;99974.63;109304;1276;22173;-89
2022/04/28 05:25:56;;;;;;;12.00;4.70;;;;;;;10.01;57.46;99975.73;109213;1276;23174;-90
2022/04/28 05:28:42;;;;;;;10.20;4.20;;;;;;;10.13;57.59;99977.71;109506;1277;22371;-89
2022/04/28 05:31:38;;;;;;;19.30;5.50;;;;;;;10.25;57.56;99978.84;109125;1276;22541;-91
2022/04/28 05:34:18;;;;;;;13.20;5.10;;;;;;;10.36;57.45;99980.20;109418;1277;22176;-90
2022/04/28 05:36:58;;;;;;;16.10;5.10;;;;;;;10.49;57.39;99985.87;109237;1277;22466;-88
2022/04/28 05:39:26;;;;;;;12.40;5.00;;;;;;;10.59;57.48;99981.92;109444;1277;22492;-88
2022/04/28 05:42:10;;;;;;;12.50;5.00;;;;;;;10.75;57.32;99989.90;109072;1277;22461;-89
2022/04/28 05:47:41;;;;;;;10.50;4.60;;;;;;;11.09;57.24;99984.69;109412;1276;23097;-90
2022/04/28 05:50:11;;;;;;;10.40;4.60;;;;;;;11.22;57.01;99987.48;109313;1276;23092;-89
2022/04/28 05:52:40;;;;;;;13.60;4.60;;;;;;;11.34;57.16;99990.64;109333;1276;22508;-88
2022/04/28 05:55:12;;;;;;;13.80;4.70;;;;;;;11.52;56.99;99989.93;109508;1277;22516;-89
2022/04/28 05:57:42;;;;;;;14.90;4.70;;;;;;;11.64;56.94;99990.42;109325;1277;23173;-88
2022/04/28 06:00:23;;;;;;;;;;;;;;;;;;;;;
2022/04/28 06:03:02;;;;;;;14.00;5.20;;;;;;;11.80;56.78;99992.67;109335;1277;22489;-88
2022/04/28 06:05:38;;;;;;;12.90;6.50;;;;;;;11.81;56.49;100000.77;109248;1277;22282;-88
2022/04/28 06:08:05;;;;;;;13.90;6.00;;;;;;;11.97;56.23;99999.30;109099;1277;22464;-90
2022/04/28 06:10:41;;;;;;;15.20;6.40;;;;;;;12.14;56.30;100002.52;109297;1276;22450;-89
2022/04/28 06:13:08;;;;;;;11.20;5.20;;;;;;;12.18;56.25;99999.88;109186;1277;23284;-89
2022/04/28 06:15:46;;;;;;;9.70;4.30;;;;;;;12.08;56.08;100008.59;109293;1276;22265;-90
2022/04/28 06:18:45;;;;;;;9.70;3.80;;;;;;;11.86;56.41;100009.61;108948;1277;22488;-90
2022/04/28 06:21:44;;;;;;;17.00;4.70;;;;;;;11.76;56.39;100008.03;108983;1277;22469;-91
2022/04/28 06:24:13;;;;;;;10.10;5.00;;;;;;;11.83;56.59;100008.36;109288;1276;22398;-88
2022/04/28 06:26:40;;;;;;;12.40;5.00;;;;;;;12.01;56.38;100009.92;109263;1276;22395;-89
2022/04/28 06:29:07;;;;;;;18.00;6.50;;;;;;;12.29;56.75;100012.08;109048;1277;22444;-88
2022/04/28 06:31:34;;;;;;;13.00;5.90;;;;;;;12.64;56.42;100007.84;109339;1277;22510;-89
2022/04/28 06:34:29;;;;;;;14.40;5.50;;;;;;;12.89;55.70;100007.60;109260;1277;22469;-91
2022/04/28 06:37:06;;;;;;;15.60;7.10;;;;;;;13.08;55.57;100003.29;109198;1277;22702;-89
2022/04/28 06:39:35;;;;;;;12.00;5.10;;;;;;;13.22;55.51;100008.61;109016;1277;23205;-89
2022/04/28 06:42:14;;;;;;;11.70;4.80;;;;;;;13.36;55.56;100004.46;109303;1276;22541;-91
2022/04/28 06:45:10;;;;;;;9.70;4.40;;;;;;;13.56;55.09;100007.58;109421;1277;22452;-93
2022/04/28 06:48:33;;;;;;;11.60;4.10;;;;;;;13.75;55.47;100007.48;109255;1277;22405;-90
2022/04/28 06:51:35;;;;;;;12.10;4.00;;;;;;;14.03;54.78;100007.08;108541;1284;22521;-90
2022/04/28 06:54:14;;;;;;;8.00;3.10;;;;;;;14.18;54.79;100009.30;109169;1277;22602;-94
2022/04/28 06:56:53;;;;;;;8.80;3.30;;;;;;;14.29;54.08;100006.13;109063;1275;22477;-89
2022/04/28 06:59:31;;;;;;;8.80;3.70;;;;;;;14.47;53.83;100009.69;109127;1277;23237;-90
2022/04/28 07:01:59;;;;;;;10.50;3.90;;;;;;;14.53;54.42;100008.52;109080;1279;22393;-89
2022/04/28 07:04:30;;;;;;;11.90;4.50;;;;;;;14.75;54.58;100015.29;109161;1279;22613;-88
2022/04/28 07:07:03;;;;;;;10.20;3.40;;;;;;;14.85;54.36;100018.15;109223;1278;22140;-87
2022/04/28 07:09:30;;;;;;;9.90;3.40;;;;;;;14.99;54.45;100017.66;109001;1279;22424;-88
2022/04/28 07:12:03;;;;;;;7.10;2.40;;;;;;;15.23;54.50;100018.93;109294;1277;23035;-89
2022/04/28 07:14:53;;;;;;;9.10;4.20;;;;;;;15.43;53.42;100028.98;109288;1277;22389;-87
2022/04/28 07:17:39;;;;;;;9.70;4.00;;;;;;;15.47;54.12;100024.92;109282;1277;22371;-86
2022/04/28 07:20:08;;;;;;;9.40;3.70;;;;;;;15.78;54.39;100026.34;109101;1277;22456;-84
2022/04/28 07:22:36;;;;;;;6.80;2.70;;;;;;;16.02;54.00;100027.34;109190;1277;22391;-87
2022/04/28 07:25:32;;;;;;;7.90;2.80;;;;;;;16.08;53.14;100023.91;109109;1277;23371;-86
2022/04/28 07:28:47;;;;;;;6.30;2.40;;;;;;;15.98;53.51;100027.59;109415;1277;22468;-90
2022/04/28 07:32:24;;;;;;;;;;;;;;;;;;;;;
2022/04/28 07:35:23;;;;;;;9.50;3.30;;;;;;;15.93;52.12;100027.98;108433;1285;23143;-88
2022/04/28 07:38:29;;;;;;;10.10;3.80;;;;;;;15.72;51.92;100037.77;108426;1285;22764;-89
2022/04/28 07:41:31;;;;;;;11.80;4.50;;;;;;;15.69;52.49;100036.52;108304;1285;22537;-89
2022/04/28 07:43:58;;;;;;;10.90;4.20;;;;;;;15.62;52.46;100040.32;108231;1285;23145;-90
2022/04/28 07:46:32;;;;;;;10.60;4.10;;;;;;;15.65;53.06;100036.50;108307;1285;22667;-91
2022/04/28 07:49:21;;;;;;;8.20;3.70;;;;;;;15.86;53.09;100040.55;108425;1285;22447;-88
2022/04/28 07:51:48;;;;;;;12.60;4.30;;;;;;;16.10;53.17;100040.52;108615;1284;22432;-92
2022/04/28 07:54:28;;;;;;;8.30;3.10;;;;;;;16.15;52.59;100041.34;108253;1282;22569;-89
2022/04/28 07:57:15;;;;;;;12.60;5.50;;;;;;;16.18;52.95;100043.77;108559;1284;22568;-89
2022/04/28 07:59:45;;;;;;;11.70;4.20;;;;;;;16.36;52.57;100050.30;108595;1285;23169;-88
2022/04/28 08:02:19;;;;;;;9.50;4.30;;;;;;;16.42;52.87;100050.46;108412;1285;22499;-88
2022/04/28 08:04:52;;;;;;;12.00;5.10;;;;;;;16.61;52.63;100051.08;108373;1285;22362;-90
2022/04/28 08:07:40;;;;;;;13.80;6.50;;;;;;;16.67;52.68;100052.26;108526;1285;22426;-88
2022/04/28 08:10:08;;;;;;;20.00;11.40;;;;;;;16.82;52.36;100053.38;109083;1277;22239;-91
2022/04/28 08:12:40;;;;;;;20.80;12.20;;;;;;;16.81;51.95;100052.36;108799;1279;22450;-89
2022/04/28 08:15:23;;;;;;;25.80;12.40;;;;;;;16.84;52.37;100054.64;109089;1279;22462;-88
2022/04/28 08:17:53;;;;;;;13.40;5.30;;;;;;;16.85;52.02;100054.75;109231;1279;22488;-89
2022/04/28 08:20:20;;;;;;;12.80;4.60;;;;;;;16.75;51.81;100055.05;109192;1278;22600;-89
2022/04/28 08:22:48;;;;;;;10.40;4.90;;;;;;;16.72;52.02;100057.77;109239;1276;22873;-87
2022/04/28 08:25:25;;;;;;;11.50;5.40;;;;;;;16.68;51.92;100055.35;109212;1279;22534;-91
2022/04/28 08:28:05;;;;;;;14.40;6.00;;;;;;;16.60;51.43;100054.42;109385;1278;23061;-89
2022/04/28 08:30:33;;;;;;;17.50;8.80;;;;;;;16.60;51.69;100060.52;108893;1279;23083;-88
2022/04/28 08:33:05;;;;;;;10.30;5.60;;;;;;;16.69;51.91;100065.08;109374;1278;22478;-87
2022/04/28 08:35:34;;;;;;;11.90;5.50;;;;;;;16.80;52.04;100065.83;109400;1276;22438;-87
2022/04/28 08:38:01;;;;;;;9.70;4.20;;;;;;;16.87;51.87;100071.67;109427;1277;22478;-89
2022/04/28 08:40:35;;;;;;;9.90;4.40;;;;;;;16.96;51.98;100071.48;109168;1277;22440;-89
2022/04/28 08:43:10;;;;;;;11.70;4.30;;;;;;;17.12;51.40;100071.56;109265;1279;22421;-89
2022/04/28 08:48:40;;;;;;;13.00;5.10;;;;;;;17.13;51.75;100071.16;108962;1278;22621;-90
2022/04/28 08:51:25;;;;;;;10.20;4.60;;;;;;;17.34;51.71;100073.73;109094;1278;22397;-93
2022/04/28 08:53:53;;;;;;;8.70;4.10;;;;;;;17.41;51.38;100071.34;108994;1279;23232;-90
2022/04/28 08:56:26;;;;;;;13.10;5.00;;;;;;;17.30;50.63;100074.77;109260;1279;22401;-91
2022/04/28 08:59:02;;;;;;;10.60;4.30;;;;;;;17.27;51.15;100072.12;109373;1278;22592;-92
2022/04/28 09:01:33;;;;;;;8.90;4.50;;;;;;;17.27;51.02;100070.15;109190;1278;23077;-87
2022/04/28 09:04:32;;;;;;;9.80;4.60;;;;;;;17.23;49.77;100074.13;108733;1278;22521;-92
2022/04/28 09:07:34;;;;;;;10.70;5.00;;;;;;;17.14;50.80;100071.73;109056;1277;23226;-91
2022/04/28 09:10:30;;;;;;;10.60;4.40;;;;;;;17.35;51.07;100069.69;109176;1277;22474;-92
2022/04/28 09:16:11;;;;;;;10.10;3.90;;;;;;;17.53;51.11;100067.24;109273;1279;22398;-90
2022/04/28 09:19:13;;;;;;;19.50;4.50;;;;;;;17.61;50.79;100063.80;109266;1279;23334;-91
2022/04/28 09:21:43;;;;;;;10.90;4.50;;;;;;;17.61;49.13;100068.69;109462;1277;22375;-90
2022/04/28 09:24:11;;;;;;;9.30;3.30;;;;;;;17.37;50.05;100071.08;109170;1279;23196;-91
2022/04/28 09:26:39;;;;;;;8.40;3.80;;;;;;;17.40;48.92;100070.83;109237;1279;22377;-90
2022/04/28 09:29:12;;;;;;;10.70;3.90;;;;;;;17.33;49.99;100074.14;109163;1279;22462;-90
2022/04/28 09:31:44;;;;;;;11.10;4.40;;;;;;;17.44;49.61;100066.89;109159;1279;22341;-91
2022/04/28 09:34:44;;;;;;;10.30;3.70;;;;;;;17.63;50.18;100065.45;109128;1279;22980;-90
2022/04/28 09:37:29;;;;;;;10.30;3.40;;;;;;;17.90;49.96;100066.09;109133;1277;22419;-90
2022/04/28 09:42:57;;;;;;;9.40;3.70;;;;;;;17.94;48.58;100073.11;109175;1277;22466;-89
2022/04/28 09:45:31;;;;;;;9.10;3.30;;;;;;;17.68;48.78;100064.49;109163;1277;22523;-89
2022/04/28 09:48:05;;;;;;;8.20;3.20;;;;;;;17.68;48.78;100067.21;109204;1279;23161;-90
2022/04/28 09:50:41;;;;;;;11.20;3.40;;;;;;;17.78;48.53;100072.83;108974;1279;22415;-89
2022/04/28 09:53:35;;;;;;;10.10;3.30;;;;;;;17.92;49.41;100073.66;109502;1278;22517;-92
2022/04/28 09:56:34;;;;;;;10.70;3.40;;;;;;;18.38;49.17;100067.48;109127;1277;22475;-89
2022/04/28 09:59:13;;;;;;;9.20;3.00;;;;;;;18.55;48.85;100070.08;109155;1279;23132;-89
2022/04/28 10:01:44;;;;;;;10.50;3.60;;;;;;;18.40;48.49;100073.77;109192;1279;22570;-91
2022/04/28 10:04:12;;;;;;;11.70;3.50;;;;;;;18.57;48.69;100065.73;109293;1278;22420;-86
2022/04/28 10:06:58;;;;;;;8.90;3.10;;;;;;;18.66;48.60;100069.46;109395;1279;22437;-92
2022/04/28 10:09:35;;;;;;;8.80;3.70;;;;;;;19.08;49.20;100063.10;109303;1277;22622;-88
2022/04/28 10:12:13;;;;;;;10.10;3.50;;;;;;;19.23;48.44;100062.69;109205;1278;23062;-90
2022/04/28 10:15:14;;;;;;;10.70;3.90;;;;;;;18.97;48.40;100067.25;109174;1278;22482;-90
2022/04/28 10:18:08;;;;;;;9.50;3.70;;;;;;;19.17;48.36;100071.85;109131;1278;22436;-92
2022/04/28 10:20:42;;;;;;;8.70;3.30;;;;;;;19.41;48.20;100067.65;109147;1278;22431;-91
2022/04/28 10:23:14;;;;;;;9.10;3.30;;;;;;;19.43;48.54;100070.39;109198;1278;22459;-88
2022/04/28 10:33:03;;;;;;;10.50;4.60;;;;;;;19.46;47.68;100059.44;108482;1285;22478;-85
2022/04/28 10:36:01;;;;;;;27.50;7.70;;;;;;;19.27;47.47;100063.55;108403;1285;22251;-88
2022/04/28 10:38:35;;;;;;;9.40;4.00;;;;;;;18.78;47.47;100065.72;108397;1285;22532;-89
2022/04/28 10:41:10;;;;;;;8.80;4.00;;;;;;;18.82;48.22;100062.42;108409;1285;23169;-90
2022/04/28 10:43:49;;;;;;;8.20;3.30;;;;;;;18.75;47.80;100066.85;108391;1285;22536;-93
2022/04/28 10:46:28;;;;;;;7.60;3.10;;;;;;;18.85;48.24;100060.58;108495;1284;22708;-92
2022/04/28 10:49:06;;;;;;;7.70;3.00;;;;;;;19.15;47.54;100066.13;108675;1285;22474;-86
2022/04/28 10:51:36;;;;;;;8.70;3.40;;;;;;;19.20;46.97;100059.52;108609;1285;23440;-86
2022/04/28 10:54:11;;;;;;;12.70;3.80;;;;;;;19.27;47.43;100062.13;108683;1285;22431;-92
2022/04/28 10:57:14;;;;;;;9.30;3.30;;;;;;;19.62;46.89;100058.80;108821;1278;22476;-93
2022/04/28 11:00:00;;;;;;;8.40;3.10;;;;;;;19.89;46.15;100057.16;109205;1278;22555;-92
2022/04/28 11:02:42;;;;;;;9.10;2.70;;;;;;;19.85;46.69;100055.23;109375;1279;22493;-89
2022/04/28 11:05:42;;;;;;;8.70;3.00;;;;;;;19.64;46.47;100060.61;109039;1278;22423;-90
2022/04/28 11:08:28;;;;;;;5.80;2.50;;;;;;;19.07;47.19;100062.84;109145;1279;22404;-92
2022/04/28 11:11:08;;;;;;;7.20;2.60;;;;;;;18.68;46.69;100055.02;109103;1279;22353;-91
2022/04/28 11:13:49;;;;;;;8.70;2.90;;;;;;;18.88;46.92;100060.48;109218;1279;22419;-89
2022/04/28 11:16:28;;;;;;;;;;;;;;;;;;;;;
2022/04/28 11:19:07;;;;;;;8.80;2.70;;;;;;;19.44;46.97;100057.76;109163;1279;23176;-89
2022/04/28 11:22:09;;;;;;;;;;;;;;;;;;;;;
2022/04/28 11:24:44;;;;;;;9.30;2.70;;;;;;;19.78;46.43;100058.65;109395;1279;22600;-91
2022/04/28 11:27:42;;;;;;;8.30;3.30;;;;;;;19.98;45.68;100061.05;109026;1279;22513;-89
2022/04/28 11:30:22;;;;;;;9.10;3.10;;;;;;;19.65;46.25;100057.44;109214;1278;22513;-90
2022/04/28 11:33:13;;;;;;;9.20;2.90;;;;;;;19.69;46.40;100056.73;109575;1278;22411;-91
2022/04/28 11:35:51;;;;;;;8.10;2.80;;;;;;;19.37;46.41;100064.42;109211;1279;22432;-92
2022/04/28 11:38:51;;;;;;;8.80;3.10;;;;;;;19.47;46.26;100065.98;109182;1278;449677;-93
2022/04/28 11:41:58;;;;;;;8.70;2.80;;;;;;;19.74;45.52;100060.23;109161;1278;23070;-87
2022/04/28 11:44:51;;;;;;;8.10;2.90;;;;;;;19.88;45.41;100057.29;109290;1278;22473;-90
2022/04/28 11:47:32;;;;;;;9.90;3.40;;;;;;;19.70;45.90;100060.48;109106;1279;22453;-88
2022/04/28 11:50:03;;;;;;;9.60;3.10;;;;;;;19.67;45.92;100057.96;109501;1277;23116;-91
2022/04/28 11:52:44;;;;;;;6.30;2.40;;;;;;;19.32;45.73;100065.95;109184;1278;23359;-91
2022/04/28 11:55:30;;;;;;;7.90;3.50;;;;;;;19.02;45.86;100068.89;109245;1279;22433;-91
2022/04/28 11:59:02;;;;;;;8.20;3.20;;;;;;;18.68;45.20;100066.45;109363;1279;23102;-89
2022/04/28 12:01:40;;;;;;;10.00;3.00;;;;;;;18.76;45.27;100055.94;109383;1277;23323;-91
2022/04/28 12:04:16;;;;;;;9.40;3.10;;;;;;;18.77;45.19;100057.08;109197;1279;22382;-87
2022/04/28 12:06:48;;;;;;;9.10;2.80;;;;;;;18.67;44.93;100058.20;109431;1278;22378;-85
2022/04/28 12:14:51;;;;;;;9.10;2.90;;;;;;;19.15;45.87;100055.30;109372;1279;22355;-93
2022/04/28 12:20:11;;;;;;;8.20;2.80;;;;;;;19.62;44.79;100044.56;109265;1279;23008;-85
2022/04/28 12:22:40;;;;;;;9.20;3.20;;;;;;;19.66;44.62;100050.30;109253;1279;22431;-87
2022/04/28 12:25:15;;;;;;;6.40;2.00;;;;;;;19.54;44.50;100055.41;108999;1281;22524;-92
2022/04/28 12:27:53;;;;;;;5.10;2.20;;;;;;;19.02;45.04;100056.23;109442;1279;23018;-92
2022/04/28 12:30:21;;;;;;;8.50;3.30;;;;;;;18.70;45.24;100055.59;109268;1278;22465;-86
2022/04/28 12:32:56;;;;;;;8.60;2.90;;;;;;;18.79;45.54;100048.79;109279;1277;22424;-92
2022/04/28 12:35:32;;;;;;;9.00;2.60;;;;;;;19.08;45.70;100044.89;109345;1277;22454;-91
2022/04/28 12:38:19;;;;;;;;;;;;;;;;;;;;;
2022/04/28 12:40:54;;;;;;;7.10;2.50;;;;;;;19.77;45.09;100041.73;109465;1277;23047;-88
2022/04/28 12:43:38;;;;;;;10.30;3.00;;;;;;;19.40;44.91;100037.20;109228;1279;23001;-90
2022/04/28 12:46:09;;;;;;;6.70;2.10;;;;;;;19.25;45.15;100026.58;109145;1279;22267;-91
2022/04/28 12:48:38;;;;;;;11.00;3.20;;;;;;;19.17;44.14;100033.20;109225;1278;22415;-92
2022/04/28 12:51:16;;;;;;;6.00;2.60;;;;;;;18.87;44.98;100037.40;109508;1277;23383;-90
2022/04/28 12:53:46;;;;;;;8.80;3.20;;;;;;;18.84;45.40;100035.02;109070;1279;23288;-90
2022/04/28 12:56:33;;;;;;;7.20;2.90;;;;;;;19.00;44.96;100036.22;109302;1279;22519;-89
2022/04/28 12:59:02;;;;;;;7.20;3.10;;;;;;;19.01;44.76;100025.16;109398;1277;23398;-91
2022/04/28 13:01:34;;;;;;;8.40;2.90;;;;;;;19.12;44.44;100021.40;109262;1278;22411;-89
2022/04/28 13:04:09;;;;;;;7.50;2.90;;;;;;;19.28;44.18;100021.91;108997;1279;22512;-87
2022/04/28 13:06:46;;;;;;;12.80;3.40;;;;;;;19.30;44.56;100019.77;109281;1279;22407;-87
2022/04/28 13:09:15;;;;;;;7.90;2.90;;;;;;;19.47;44.69;100019.89;109269;1279;23199;-93
2022/04/28 13:11:44;;;;;;;10.10;2.70;;;;;;;19.55;44.26;100024.06;109225;1279;23364;-88
2022/04/28 13:14:16;;;;;;;7.70;2.20;;;;;;;19.45;44.56;100017.75;109156;1281;23520;-90
2022/04/28 13:16:43;;;;;;;10.00;2.80;;;;;;;19.41;43.90;100014.20;108858;1281;22388;-88
2022/04/28 13:19:11;;;;;;;7.70;2.50;;;;;;;19.29;44.29;100015.11;109507;1279;22311;-91
2022/04/28 13:21:39;;;;;;;7.70;2.70;;;;;;;19.31;44.31;100013.52;109241;1278;22421;-90
2022/04/28 13:24:08;;;;;;;7.90;2.50;;;;;;;19.31;44.38;100015.69;109099;1281;22369;-92
2022/04/28 13:26:35;;;;;;;7.30;2.60;;;;;;;19.34;44.62;100013.42;109482;1278;22474;-92